Oulan-Bator, Mongolia

13:52 ULAST le 24 juillet 2016 (GMT +0900)
Buyant-Ukhaa | | Change Station

Alt. 4364 ft 47.83 °N, 106.78 °E | Updated 22 minutes ago

Smoke
Fumée
66 ° F
Paraît 66 ° F
N
4
Vent Variable Vent de Variable

Aujourd'hui
Haut(e) -- | Bas -- ° F
--% Risque de précip.
Hier
Haut(e) -- | Bas -- ° F
Precip. -- pouce
Pression 29.98 pouce
Visibilité 1.7 Miles terrestres
Nuages Nuageux 25000 ft
Point de rosée 46 ° F
Humidité 49%
Précipitations 0.00 pouce
Profondeur de la couche neigeuse Non disponible.
6:19 AM 9:38 PM
Lune gibbeuse décroissante, 79% visible
METAR ZMUB 240430Z VRB02MPS 2800SE 4000NW FU BKN250 19/08 Q1015 NOSIG RMK QFE654.0 45 SE NW MO
Pression 29.98 pouce
Visibilité 1.7 Miles terrestres
Nuages Nuageux 25000 ft
Point de rosée 46 ° F
Humidité 49%
Précipitations 0.00 pouce
Profondeur de la couche neigeuse Non disponible.
6:19 AM 9:38 PM
Lune gibbeuse décroissante, 79% visible
METAR ZMUB 240430Z VRB02MPS 2800SE 4000NW FU BKN250 19/08 Q1015 NOSIG RMK QFE654.0 45 SE NW MO

10-Day Weather Forecast

No radar image for this location.
×

Almanac

Astronomie

Jul. 24, 2016 Lever Coucher
Temps réel
Crépuscule civil
Crépuscule nautique
Crépuscule astronomique
Lune
Durée de lumière visible
Longueur du jour
Tomorrow will be .
, % of the Moon is Illuminated

Extrêmes aujourd'hui

Country Highs Country Lows

Community

WunderPhotos

Upload Photos

1,927,030 Photos téléchargées !

WunderBlog® & News

Nearby

Qualité de l'air

  Qualité de l'air Indice de la qualité de l'air Polluant
Not available.

Épaisseur de neige

Station Depth Altitude

Activité sismique

Ville Distance Mag. Time & Date
Minimum magnitude displayed is 2.5.

Températures des eaux côtières

Lieu Température

Stations

Stations météo à proximité

Emplacement de la station Température Refroidissement éolien Point de rosée Humidité Vent Precip. Alt. Mise à jour Type